Ana Sayfa
METAR-TAF:

METAR-TAF

Havaalanları :

Muş Havalimanı

Muş, Türkiye

Enlem: 38-45N, Boylam: 041-40E, yükseklik: 1266 m

Güncel hava durumu gözlemi

Rapor saat 12:50 UTC de 3 saat ve 59 dakika önce yapıldı.
Rüzgar batıdan 5 kt, güneybatı ve batı/kuzeybatı arasında değişken
Sıcaklık 11°C
Nem 20%
Basınç 1023 hPa
Görüş mesafesi 10 km veya daha fazla
1500 m altında bulut yok ve kümülonimbus yok

METAR: LTCK 181250Z 26005KT 230V290 CAVOK 11/M11 Q1023

Saat: 19:49 (16:49 UTC)

Tahmin

Rapor saat 13:40 UTC de 3 saat ve 9 dakika önce yapıldı.
Ayın 18'si saat 15 UTC'den ayın 18'si saat 24 UTC'ye kadar geçerli Tahmin
Rüzgar batı/kuzeybatıdan 7 kt
Görüş mesafesi 10 km veya daha fazla
1500 m altında bulut yok ve kümülonimbus yok

TAF: LTCK 181340Z 1815/1824 29007KT CAVOK

4.000'den fazla havaalanı için hava durumu gözlemleri ve tahminleri (METAR ve TAF raporları).

Kullanılabilir istasyonlar harita üzerinde sarı ve kırmızı noktalarla gösterilir.

İstasyonun adını görmek için fareyi noktanın üzerinde gezdirin.

Sonrasında hava gözlem ve tahminlerini görmek için tıklayın.

Haritayı değiştirmek için: yaklaştırmak için siyah artı işaretli yeşil düğmeye ve uzaklaştırmak için de eksi işaretli düğmeye hızla tıklayın; bitişik haritalar için yeşil okları kullanın.


METAR-TAF: